createdAt,value
2022-08-18T00:03:00.475Z,22.21
2022-08-18T00:17:49.188Z,21.83
2022-08-18T00:32:49.423Z,21.49
2022-08-18T00:47:49.430Z,20.94
2022-08-18T01:02:49.518Z,20.62
2022-08-18T01:17:49.742Z,20.54
2022-08-18T01:32:51.018Z,20.48
2022-08-18T01:47:53.089Z,20.26
2022-08-18T02:02:58.657Z,19.96
2022-08-18T02:17:58.300Z,19.59
2022-08-18T02:32:58.411Z,19.37
2022-08-18T02:47:58.993Z,19.08
2022-08-18T03:02:59.602Z,18.69
2022-08-18T03:18:00.143Z,18.51
2022-08-18T03:33:00.421Z,18.35
2022-08-18T03:48:00.331Z,18.21
2022-08-18T04:03:00.482Z,18.07
2022-08-18T04:18:03.351Z,17.77
2022-08-18T04:33:04.624Z,18.18
2022-08-18T04:48:04.705Z,18.50
2022-08-18T05:03:04.828Z,19.07
2022-08-18T05:18:08.050Z,19.54
2022-08-18T05:33:13.113Z,20.28
2022-08-18T05:48:13.215Z,21.17
2022-08-18T06:03:13.425Z,22.00
2022-08-18T06:18:13.410Z,22.68
2022-08-18T06:33:13.523Z,23.22
2022-08-18T06:48:15.695Z,23.39
2022-08-18T07:03:15.935Z,23.75
2022-08-18T07:18:16.052Z,24.13
2022-08-18T07:33:16.112Z,24.83
2022-08-18T07:48:37.054Z,25.14
2022-08-18T08:03:21.287Z,25.80
2022-08-18T08:18:21.352Z,26.32
2022-08-18T08:33:21.423Z,26.62
2022-08-18T08:48:21.524Z,26.89
2022-08-18T09:03:30.198Z,27.39
2022-08-18T09:18:27.214Z,28.48
2022-08-18T09:33:27.920Z,29.31
2022-08-18T09:48:28.671Z,29.74
2022-08-18T10:03:31.525Z,30.39
2022-08-18T10:18:32.067Z,31.41
2022-08-18T10:33:32.147Z,32.10
2022-08-18T10:48:33.495Z,33.23
2022-08-18T11:18:43.009Z,34.77
2022-08-18T11:33:43.757Z,35.06
2022-08-18T11:48:51.861Z,35.70
2022-08-18T12:03:50.185Z,36.29
2022-08-18T12:18:50.434Z,36.84
2022-08-18T12:33:59.939Z,37.13
2022-08-18T12:48:58.744Z,37.76
2022-08-18T13:19:06.089Z,36.43
2022-08-18T13:34:15.203Z,35.10
2022-08-18T13:49:13.543Z,34.13
2022-08-18T14:04:20.590Z,32.97
2022-08-18T14:19:22.729Z,34.03
2022-08-18T14:34:28.510Z,35.09
2022-08-18T14:49:29.106Z,35.36
2022-08-18T15:04:29.929Z,35.81
2022-08-18T15:19:58.554Z,34.49
2022-08-18T15:34:46.653Z,33.78
2022-08-18T15:49:42.339Z,33.11
2022-08-18T16:04:43.140Z,32.51
2022-08-18T16:19:44.998Z,32.13
2022-08-18T16:34:46.087Z,31.51
2022-08-18T16:49:46.264Z,31.01
2022-08-18T17:04:46.261Z,29.18
2022-08-18T17:19:46.349Z,27.96
2022-08-18T17:34:46.491Z,27.03
2022-08-18T17:49:46.834Z,26.32
2022-08-18T18:04:48.980Z,25.82
2022-08-18T18:19:48.800Z,25.46
2022-08-18T18:34:49.325Z,25.02
2022-08-18T18:49:49.453Z,24.81
2022-08-18T19:04:50.870Z,24.42
2022-08-18T19:19:54.574Z,24.12
2022-08-18T19:34:55.826Z,23.80
2022-08-18T19:49:56.943Z,23.46
2022-08-18T20:04:57.878Z,23.47
2022-08-18T20:20:00.089Z,23.15
2022-08-18T20:35:00.189Z,22.60
2022-08-18T20:49:59.757Z,22.54
2022-08-18T21:05:01.611Z,22.25
2022-08-18T21:20:01.676Z,22.14
2022-08-18T21:35:02.274Z,21.98
2022-08-18T21:50:01.869Z,21.82
2022-08-18T22:05:02.191Z,21.75
2022-08-18T22:20:03.744Z,21.71
2022-08-18T22:35:05.207Z,21.54
2022-08-18T22:50:05.625Z,21.46
2022-08-18T23:05:05.970Z,21.50
2022-08-18T23:20:06.367Z,21.42
2022-08-18T23:35:11.631Z,21.46
2022-08-18T23:50:11.268Z,21.44
